sensor_id;sensor_type;location;lat;lon;timestamp;P1;durP1;ratioP1;P2;durP2;ratioP2
37169;SDS011;23062;13.952;100.608;2024-02-21T00:02:08;2.05;;;3.84;;
37169;SDS011;23062;13.952;100.608;2024-02-21T00:06:47;2.09;;;3.85;;
37169;SDS011;23062;13.952;100.608;2024-02-21T00:11:29;2.21;;;3.88;;
37169;SDS011;23062;13.952;100.608;2024-02-21T00:16:14;2.56;;;4.63;;
37169;SDS011;23062;13.952;100.608;2024-02-21T00:20:55;1.91;;;3.84;;
37169;SDS011;23062;13.952;100.608;2024-02-21T00:25:31;1.79;;;3.23;;
37169;SDS011;23062;13.952;100.608;2024-02-21T00:30:08;2.15;;;3.87;;
37169;SDS011;23062;13.952;100.608;2024-02-21T00:34:51;1.87;;;3.49;;
37169;SDS011;23062;13.952;100.608;2024-02-21T00:39:35;1.89;;;3.49;;
37169;SDS011;23062;13.952;100.608;2024-02-21T00:44:20;2.26;;;3.89;;
37169;SDS011;23062;13.952;100.608;2024-02-21T00:49:04;2.23;;;3.88;;
37169;SDS011;23062;13.952;100.608;2024-02-21T00:53:51;2.23;;;3.85;;
37169;SDS011;23062;13.952;100.608;2024-02-21T00:58:30;1.86;;;3.48;;
37169;SDS011;23062;13.952;100.608;2024-02-21T01:03:15;2.44;;;4.25;;
37169;SDS011;23062;13.952;100.608;2024-02-21T01:08:00;1.63;;;3.43;;
37169;SDS011;23062;13.952;100.608;2024-02-21T01:12:36;1.64;;;3.08;;
37169;SDS011;23062;13.952;100.608;2024-02-21T01:17:13;1.85;;;3.48;;
37169;SDS011;23062;13.952;100.608;2024-02-21T01:21:50;2.13;;;3.90;;
37169;SDS011;23062;13.952;100.608;2024-02-21T01:26:26;2.15;;;3.87;;
37169;SDS011;23062;13.952;100.608;2024-02-21T01:31:03;2.09;;;3.89;;
37169;SDS011;23062;13.952;100.608;2024-02-21T01:35:46;2.32;;;4.26;;
37169;SDS011;23062;13.952;100.608;2024-02-21T01:40:24;1.81;;;4.17;;
37169;SDS011;23062;13.952;100.608;2024-02-21T01:45:08;1.37;;;4.36;;
37169;SDS011;23062;13.952;100.608;2024-02-21T01:49:52;1.20;;;4.00;;
37169;SDS011;23062;13.952;100.608;2024-02-21T01:54:28;1.64;;;4.10;;
37169;SDS011;23062;13.952;100.608;2024-02-21T01:59:11;1.56;;;4.08;;
37169;SDS011;23062;13.952;100.608;2024-02-21T02:03:54;1.48;;;3.74;;
37169;SDS011;23062;13.952;100.608;2024-02-21T02:08:38;1.83;;;4.14;;
37169;SDS011;23062;13.952;100.608;2024-02-21T02:13:24;1.97;;;4.17;;
37169;SDS011;23062;13.952;100.608;2024-02-21T02:18:08;2.14;;;4.56;;
37169;SDS011;23062;13.952;100.608;2024-02-21T02:22:53;1.88;;;3.80;;
37169;SDS011;23062;13.952;100.608;2024-02-21T02:27:41;1.87;;;3.45;;
37169;SDS011;23062;13.952;100.608;2024-02-21T02:32:17;2.06;;;4.23;;
37169;SDS011;23062;13.952;100.608;2024-02-21T02:36:54;2.10;;;3.89;;
37169;SDS011;23062;13.952;100.608;2024-02-21T02:41:30;2.34;;;3.91;;
37169;SDS011;23062;13.952;100.608;2024-02-21T02:46:06;2.10;;;3.54;;
37169;SDS011;23062;13.952;100.608;2024-02-21T02:50:42;2.23;;;3.37;;
37169;SDS011;23062;13.952;100.608;2024-02-21T02:55:28;3.62;;;4.86;;
37169;SDS011;23062;13.952;100.608;2024-02-21T03:00:05;3.35;;;4.09;;
37169;SDS011;23062;13.952;100.608;2024-02-21T03:04:43;3.20;;;4.10;;
37169;SDS011;23062;13.952;100.608;2024-02-21T03:09:19;4.00;;;5.36;;
37169;SDS011;23062;13.952;100.608;2024-02-21T03:13:56;3.72;;;4.58;;
37169;SDS011;23062;13.952;100.608;2024-02-21T03:18:40;4.25;;;5.01;;
37169;SDS011;23062;13.952;100.608;2024-02-21T03:23:24;3.46;;;4.16;;
37169;SDS011;23062;13.952;100.608;2024-02-21T03:28:05;3.14;;;3.79;;
37169;SDS011;23062;13.952;100.608;2024-02-21T03:32:44;3.68;;;4.28;;
37169;SDS011;23062;13.952;100.608;2024-02-21T03:37:19;4.02;;;4.29;;
37169;SDS011;23062;13.952;100.608;2024-02-21T03:42:02;4.68;;;4.74;;
37169;SDS011;23062;13.952;100.608;2024-02-21T03:46:47;4.87;;;5.14;;
37169;SDS011;23062;13.952;100.608;2024-02-21T03:51:31;5.30;;;5.24;;
37169;SDS011;23062;13.952;100.608;2024-02-21T03:56:10;5.44;;;5.64;;
37169;SDS011;23062;13.952;100.608;2024-02-21T04:00:53;5.24;;;5.66;;
37169;SDS011;23062;13.952;100.608;2024-02-21T04:05:33;4.54;;;4.41;;
37169;SDS011;23062;13.952;100.608;2024-02-21T04:10:09;4.47;;;4.39;;
37169;SDS011;23062;13.952;100.608;2024-02-21T04:14:48;4.57;;;4.12;;
37169;SDS011;23062;13.952;100.608;2024-02-21T04:19:24;5.32;;;5.32;;
37169;SDS011;23062;13.952;100.608;2024-02-21T04:24:03;5.24;;;4.86;;
37169;SDS011;23062;13.952;100.608;2024-02-21T04:28:42;4.55;;;4.53;;
37169;SDS011;23062;13.952;100.608;2024-02-21T04:33:28;3.94;;;3.98;;
37169;SDS011;23062;13.952;100.608;2024-02-21T04:38:13;3.98;;;3.99;;
37169;SDS011;23062;13.952;100.608;2024-02-21T04:42:58;4.43;;;4.01;;
37169;SDS011;23062;13.952;100.608;2024-02-21T04:47:31;4.91;;;4.49;;
37169;SDS011;23062;13.952;100.608;2024-02-21T04:52:09;5.12;;;4.91;;
37169;SDS011;23062;13.952;100.608;2024-02-21T04:56:45;4.38;;;4.00;;
37169;SDS011;23062;13.952;100.608;2024-02-21T05:01:21;4.77;;;4.46;;
37169;SDS011;23062;13.952;100.608;2024-02-21T05:06:05;4.48;;;4.47;;
37169;SDS011;23062;13.952;100.608;2024-02-21T05:10:48;4.23;;;4.05;;
37169;SDS011;23062;13.952;100.608;2024-02-21T05:15:31;4.57;;;4.04;;
37169;SDS011;23062;13.952;100.608;2024-02-21T05:20:14;4.01;;;3.63;;
37169;SDS011;23062;13.952;100.608;2024-02-21T05:24:59;3.66;;;3.63;;
37169;SDS011;23062;13.952;100.608;2024-02-21T05:29:41;4.32;;;4.07;;
37169;SDS011;23062;13.952;100.608;2024-02-21T05:34:17;4.65;;;4.15;;
37169;SDS011;23062;13.952;100.608;2024-02-21T05:38:52;4.98;;;4.13;;
37169;SDS011;23062;13.952;100.608;2024-02-21T05:43:38;4.45;;;3.64;;
37169;SDS011;23062;13.952;100.608;2024-02-21T05:48:19;4.85;;;4.11;;
37169;SDS011;23062;13.952;100.608;2024-02-21T05:52:56;4.49;;;4.11;;
37169;SDS011;23062;13.952;100.608;2024-02-21T05:57:38;4.47;;;4.10;;
37169;SDS011;23062;13.952;100.608;2024-02-21T06:02:15;5.25;;;4.57;;
37169;SDS011;23062;13.952;100.608;2024-02-21T06:07:01;5.13;;;4.54;;
37169;SDS011;23062;13.952;100.608;2024-02-21T06:11:37;4.40;;;4.09;;
37169;SDS011;23062;13.952;100.608;2024-02-21T06:16:15;4.49;;;4.11;;
37169;SDS011;23062;13.952;100.608;2024-02-21T06:20:55;4.95;;;4.59;;
37169;SDS011;23062;13.952;100.608;2024-02-21T06:25:36;4.98;;;4.13;;
37169;SDS011;23062;13.952;100.608;2024-02-21T06:30:20;4.93;;;4.12;;
37169;SDS011;23062;13.952;100.608;2024-02-21T06:35:06;5.39;;;4.22;;
37169;SDS011;23062;13.952;100.608;2024-02-21T06:39:43;5.69;;;4.67;;
37169;SDS011;23062;13.952;100.608;2024-02-21T06:44:19;5.80;;;4.69;;
37169;SDS011;23062;13.952;100.608;2024-02-21T06:48:55;5.57;;;4.74;;
37169;SDS011;23062;13.952;100.608;2024-02-21T06:53:31;4.99;;;4.23;;
37169;SDS011;23062;13.952;100.608;2024-02-21T06:58:11;4.25;;;3.31;;
37169;SDS011;23062;13.952;100.608;2024-02-21T07:02:50;5.25;;;4.29;;
37169;SDS011;23062;13.952;100.608;2024-02-21T07:07:34;6.05;;;4.75;;
37169;SDS011;23062;13.952;100.608;2024-02-21T07:12:12;6.60;;;4.77;;
37169;SDS011;23062;13.952;100.608;2024-02-21T07:16:56;6.04;;;4.37;;
37169;SDS011;23062;13.952;100.608;2024-02-21T07:21:42;6.21;;;4.79;;
37169;SDS011;23062;13.952;100.608;2024-02-21T07:26:25;6.44;;;4.84;;
37169;SDS011;23062;13.952;100.608;2024-02-21T07:31:10;5.97;;;4.83;;
37169;SDS011;23062;13.952;100.608;2024-02-21T07:35:46;5.33;;;3.93;;
37169;SDS011;23062;13.952;100.608;2024-02-21T07:40:22;5.82;;;3.93;;
37169;SDS011;23062;13.952;100.608;2024-02-21T07:45:06;6.04;;;4.48;;
37169;SDS011;23062;13.952;100.608;2024-02-21T07:49:51;7.60;;;5.48;;
37169;SDS011;23062;13.952;100.608;2024-02-21T07:54:27;5.05;;;3.49;;
37169;SDS011;23062;13.952;100.608;2024-02-21T07:59:10;5.25;;;3.53;;
37169;SDS011;23062;13.952;100.608;2024-02-21T08:03:53;5.88;;;4.06;;
37169;SDS011;23062;13.952;100.608;2024-02-21T08:08:35;5.26;;;3.53;;
37169;SDS011;23062;13.952;100.608;2024-02-21T08:13:10;5.73;;;3.52;;
37169;SDS011;23062;13.952;100.608;2024-02-21T08:17:51;5.40;;;3.56;;
37169;SDS011;23062;13.952;100.608;2024-02-21T08:22:39;5.76;;;4.03;;
37169;SDS011;23062;13.952;100.608;2024-02-21T08:27:24;5.32;;;3.55;;
37169;SDS011;23062;13.952;100.608;2024-02-21T08:32:08;4.79;;;3.55;;
37169;SDS011;23062;13.952;100.608;2024-02-21T08:36:44;4.97;;;3.08;;
37169;SDS011;23062;13.952;100.608;2024-02-21T08:41:30;4.04;;;2.60;;
37169;SDS011;23062;13.952;100.608;2024-02-21T08:46:12;3.97;;;2.59;;
37169;SDS011;23062;13.952;100.608;2024-02-21T08:50:48;3.93;;;2.58;;
37169;SDS011;23062;13.952;100.608;2024-02-21T08:55:25;4.29;;;2.66;;
37169;SDS011;23062;13.952;100.608;2024-02-21T09:00:06;7.28;;;4.24;;
37169;SDS011;23062;13.952;100.608;2024-02-21T09:04:50;5.50;;;3.19;;
37169;SDS011;23062;13.952;100.608;2024-02-21T09:09:35;4.91;;;3.20;;
37169;SDS011;23062;13.952;100.608;2024-02-21T09:14:12;5.74;;;3.24;;
37169;SDS011;23062;13.952;100.608;2024-02-21T09:18:57;6.77;;;3.73;;
37169;SDS011;23062;13.952;100.608;2024-02-21T09:23:35;6.74;;;3.73;;
37169;SDS011;23062;13.952;100.608;2024-02-21T09:28:21;5.42;;;3.70;;
37169;SDS011;23062;13.952;100.608;2024-02-21T09:32:57;5.42;;;3.70;;
37169;SDS011;23062;13.952;100.608;2024-02-21T09:37:40;6.67;;;3.71;;
37169;SDS011;23062;13.952;100.608;2024-02-21T09:42:36;6.80;;;4.27;;
37169;SDS011;23062;13.952;100.608;2024-02-21T09:47:17;8.48;;;5.30;;
37169;SDS011;23062;13.952;100.608;2024-02-21T09:51:58;7.23;;;4.92;;
37169;SDS011;23062;13.952;100.608;2024-02-21T09:56:48;6.60;;;3.70;;
37169;SDS011;23062;13.952;100.608;2024-02-21T10:01:32;6.55;;;4.21;;
37169;SDS011;23062;13.952;100.608;2024-02-21T10:06:15;5.92;;;3.68;;
37169;SDS011;23062;13.952;100.608;2024-02-21T10:10:57;6.91;;;4.68;;
37169;SDS011;23062;13.952;100.608;2024-02-21T10:15:42;7.47;;;4.68;;
37169;SDS011;23062;13.952;100.608;2024-02-21T10:20:21;5.14;;;3.11;;
37169;SDS011;23062;13.952;100.608;2024-02-21T10:25:14;7.26;;;4.63;;
37169;SDS011;23062;13.952;100.608;2024-02-21T10:29:58;8.17;;;5.11;;
37169;SDS011;23062;13.952;100.608;2024-02-21T10:34:35;5.06;;;3.33;;
37169;SDS011;23062;13.952;100.608;2024-02-21T10:39:12;5.94;;;3.56;;
37169;SDS011;23062;13.952;100.608;2024-02-21T10:43:56;6.54;;;4.60;;
37169;SDS011;23062;13.952;100.608;2024-02-21T10:48:41;5.51;;;3.59;;
37169;SDS011;23062;13.952;100.608;2024-02-21T10:53:41;6.09;;;3.59;;
37169;SDS011;23062;13.952;100.608;2024-02-21T10:58:23;6.58;;;4.09;;
37169;SDS011;23062;13.952;100.608;2024-02-21T11:03:11;7.01;;;5.09;;
37169;SDS011;23062;13.952;100.608;2024-02-21T11:07:56;6.91;;;5.06;;
37169;SDS011;23062;13.952;100.608;2024-02-21T11:12:32;5.81;;;4.04;;
37169;SDS011;23062;13.952;100.608;2024-02-21T11:17:16;6.81;;;4.53;;
37169;SDS011;23062;13.952;100.608;2024-02-21T11:22:03;6.61;;;4.99;;
37169;SDS011;23062;13.952;100.608;2024-02-21T11:26:47;6.44;;;4.95;;
37169;SDS011;23062;13.952;100.608;2024-02-21T11:31:43;6.31;;;4.92;;
37169;SDS011;23062;13.952;100.608;2024-02-21T11:36:24;6.75;;;4.91;;
37169;SDS011;23062;13.952;100.608;2024-02-21T11:41:01;6.75;;;4.91;;
37169;SDS011;23062;13.952;100.608;2024-02-21T11:45:39;6.18;;;4.88;;
37169;SDS011;23062;13.952;100.608;2024-02-21T11:50:23;6.58;;;4.87;;
37169;SDS011;23062;13.952;100.608;2024-02-21T11:55:09;6.47;;;4.84;;
37169;SDS011;23062;13.952;100.608;2024-02-21T11:59:55;7.26;;;5.30;;
37169;SDS011;23062;13.952;100.608;2024-02-21T12:04:45;7.07;;;5.26;;
37169;SDS011;23062;13.952;100.608;2024-02-21T12:09:24;6.61;;;4.78;;
37169;SDS011;23062;13.952;100.608;2024-02-21T12:14:09;6.20;;;4.78;;
37169;SDS011;23062;13.952;100.608;2024-02-21T12:18:46;6.20;;;5.26;;
37169;SDS011;23062;13.952;100.608;2024-02-21T12:23:30;5.21;;;4.28;;
37169;SDS011;23062;13.952;100.608;2024-02-21T12:28:13;5.12;;;4.26;;
37169;SDS011;23062;13.952;100.608;2024-02-21T12:32:58;6.57;;;5.15;;
37169;SDS011;23062;13.952;100.608;2024-02-21T12:37:44;6.97;;;5.61;;
37169;SDS011;23062;13.952;100.608;2024-02-21T12:42:35;5.24;;;4.66;;
37169;SDS011;23062;13.952;100.608;2024-02-21T12:47:21;5.20;;;4.65;;
37169;SDS011;23062;13.952;100.608;2024-02-21T12:52:07;4.39;;;3.71;;
37169;SDS011;23062;13.952;100.608;2024-02-21T12:56:45;5.52;;;4.63;;
37169;SDS011;23062;13.952;100.608;2024-02-21T13:01:30;5.94;;;5.10;;
37169;SDS011;23062;13.952;100.608;2024-02-21T13:06:18;5.87;;;4.62;;
37169;SDS011;23062;13.952;100.608;2024-02-21T13:11:08;4.69;;;4.16;;
37169;SDS011;23062;13.952;100.608;2024-02-21T13:15:48;4.67;;;3.69;;
37169;SDS011;23062;13.952;100.608;2024-02-21T13:20:27;5.03;;;4.14;;
37169;SDS011;23062;13.952;100.608;2024-02-21T13:25:05;4.95;;;4.59;;
37169;SDS011;23062;13.952;100.608;2024-02-21T13:29:54;4.15;;;3.66;;
37169;SDS011;23062;13.952;100.608;2024-02-21T13:34:34;5.17;;;4.55;;
37169;SDS011;23062;13.952;100.608;2024-02-21T13:39:14;4.68;;;4.07;;
37169;SDS011;23062;13.952;100.608;2024-02-21T13:43:52;4.06;;;3.64;;
37169;SDS011;23062;13.952;100.608;2024-02-21T13:48:28;4.11;;;3.65;;
37169;SDS011;23062;13.952;100.608;2024-02-21T13:53:17;4.14;;;3.66;;
37169;SDS011;23062;13.952;100.608;2024-02-21T13:58:08;4.84;;;4.10;;
37169;SDS011;23062;13.952;100.608;2024-02-21T14:02:54;4.87;;;4.11;;
37169;SDS011;23062;13.952;100.608;2024-02-21T14:07:38;4.10;;;3.65;;
37169;SDS011;23062;13.952;100.608;2024-02-21T14:12:23;4.00;;;3.62;;
37169;SDS011;23062;13.952;100.608;2024-02-21T14:17:08;3.64;;;3.36;;
37169;SDS011;23062;13.952;100.608;2024-02-21T14:22:02;4.24;;;3.60;;
37169;SDS011;23062;13.952;100.608;2024-02-21T14:26:52;4.18;;;3.59;;
37169;SDS011;23062;13.952;100.608;2024-02-21T14:31:28;4.15;;;4.03;;
37169;SDS011;23062;13.952;100.608;2024-02-21T14:36:13;3.01;;;2.66;;
37169;SDS011;23062;13.952;100.608;2024-02-21T14:40:59;3.40;;;3.12;;
37169;SDS011;23062;13.952;100.608;2024-02-21T14:45:42;3.36;;;3.11;;
37169;SDS011;23062;13.952;100.608;2024-02-21T14:50:31;3.60;;;3.53;;
37169;SDS011;23062;13.952;100.608;2024-02-21T14:55:14;3.97;;;3.98;;
37169;SDS011;23062;13.952;100.608;2024-02-21T14:59:59;2.97;;;3.10;;
37169;SDS011;23062;13.952;100.608;2024-02-21T15:04:46;2.94;;;3.09;;
37169;SDS011;23062;13.952;100.608;2024-02-21T15:09:30;3.19;;;3.07;;
37169;SDS011;23062;13.952;100.608;2024-02-21T15:14:11;3.51;;;3.51;;
37169;SDS011;23062;13.952;100.608;2024-02-21T15:18:53;3.87;;;3.96;;
37169;SDS011;23062;13.952;100.608;2024-02-21T15:23:34;3.18;;;3.07;;
37169;SDS011;23062;13.952;100.608;2024-02-21T15:28:19;3.46;;;3.06;;
37169;SDS011;23062;13.952;100.608;2024-02-21T15:33:04;2.55;;;2.63;;
37169;SDS011;23062;13.952;100.608;2024-02-21T15:37:49;3.13;;;3.06;;
37169;SDS011;23062;13.952;100.608;2024-02-21T15:42:34;3.75;;;3.50;;
37169;SDS011;23062;13.952;100.608;2024-02-21T15:47:20;2.45;;;2.61;;
37169;SDS011;23062;13.952;100.608;2024-02-21T15:52:04;2.42;;;2.60;;
37169;SDS011;23062;13.952;100.608;2024-02-21T15:56:40;2.15;;;2.18;;
37169;SDS011;23062;13.952;100.608;2024-02-21T16:01:25;3.19;;;3.44;;
37169;SDS011;23062;13.952;100.608;2024-02-21T16:06:05;2.07;;;2.16;;
37169;SDS011;23062;13.952;100.608;2024-02-21T16:10:51;2.62;;;2.58;;
37169;SDS011;23062;13.952;100.608;2024-02-21T16:15:37;2.59;;;2.57;;
37169;SDS011;23062;13.952;100.608;2024-02-21T16:20:34;2.92;;;3.01;;
37169;SDS011;23062;13.952;100.608;2024-02-21T16:25:29;3.12;;;3.42;;
37169;SDS011;23062;13.952;100.608;2024-02-21T16:30:09;2.56;;;3.00;;
37169;SDS011;23062;13.952;100.608;2024-02-21T16:34:54;2.62;;;2.58;;
37169;SDS011;23062;13.952;100.608;2024-02-21T16:39:38;2.51;;;2.56;;
37169;SDS011;23062;13.952;100.608;2024-02-21T16:44:20;1.95;;;2.13;;
37169;SDS011;23062;13.952;100.608;2024-02-21T16:49:05;2.22;;;2.55;;
37169;SDS011;23062;13.952;100.608;2024-02-21T16:53:52;3.18;;;3.01;;
37169;SDS011;23062;13.952;100.608;2024-02-21T16:58:36;2.56;;;2.57;;
37169;SDS011;23062;13.952;100.608;2024-02-21T17:03:13;2.86;;;3.00;;
37169;SDS011;23062;13.952;100.608;2024-02-21T17:07:55;2.75;;;2.97;;
37169;SDS011;23062;13.952;100.608;2024-02-21T17:12:32;2.03;;;2.15;;
37169;SDS011;23062;13.952;100.608;2024-02-21T17:17:18;2.97;;;3.39;;
37169;SDS011;23062;13.952;100.608;2024-02-21T17:22:01;2.48;;;2.55;;
37169;SDS011;23062;13.952;100.608;2024-02-21T17:26:46;2.13;;;2.53;;
37169;SDS011;23062;13.952;100.608;2024-02-21T17:31:33;2.21;;;2.55;;
37169;SDS011;23062;13.952;100.608;2024-02-21T17:36:19;2.34;;;2.94;;
37169;SDS011;23062;13.952;100.608;2024-02-21T17:41:18;2.44;;;2.97;;
37169;SDS011;23062;13.952;100.608;2024-02-21T17:46:02;2.66;;;2.95;;
37169;SDS011;23062;13.952;100.608;2024-02-21T17:50:46;2.42;;;2.96;;
37169;SDS011;23062;13.952;100.608;2024-02-21T17:55:30;2.70;;;2.96;;
37169;SDS011;23062;13.952;100.608;2024-02-21T18:00:16;2.64;;;2.95;;
37169;SDS011;23062;13.952;100.608;2024-02-21T18:05:03;2.72;;;2.97;;
37169;SDS011;23062;13.952;100.608;2024-02-21T18:10:08;3.11;;;3.36;;
37169;SDS011;23062;13.952;100.608;2024-02-21T18:14:52;2.86;;;2.94;;
37169;SDS011;23062;13.952;100.608;2024-02-21T18:19:35;2.66;;;2.96;;
37169;SDS011;23062;13.952;100.608;2024-02-21T18:24:20;3.12;;;3.36;;
37169;SDS011;23062;13.952;100.608;2024-02-21T18:29:03;3.15;;;3.37;;
37169;SDS011;23062;13.952;100.608;2024-02-21T18:33:49;2.33;;;2.94;;
37169;SDS011;23062;13.952;100.608;2024-02-21T18:38:33;2.62;;;2.95;;
37169;SDS011;23062;13.952;100.608;2024-02-21T18:43:24;2.63;;;2.95;;
37169;SDS011;23062;13.952;100.608;2024-02-21T18:48:09;3.03;;;3.34;;
37169;SDS011;23062;13.952;100.608;2024-02-21T18:52:50;2.54;;;2.93;;
37169;SDS011;23062;13.952;100.608;2024-02-21T18:57:31;2.62;;;2.95;;
37169;SDS011;23062;13.952;100.608;2024-02-21T19:02:16;3.08;;;3.77;;
37169;SDS011;23062;13.952;100.608;2024-02-21T19:06:55;3.11;;;3.36;;
37169;SDS011;23062;13.952;100.608;2024-02-21T19:11:39;3.02;;;3.34;;
37169;SDS011;23062;13.952;100.608;2024-02-21T19:16:16;2.68;;;2.96;;
37169;SDS011;23062;13.952;100.608;2024-02-21T19:20:55;2.85;;;3.36;;
37169;SDS011;23062;13.952;100.608;2024-02-21T19:25:38;3.07;;;3.35;;
37169;SDS011;23062;13.952;100.608;2024-02-21T19:30:24;3.07;;;3.77;;
37169;SDS011;23062;13.952;100.608;2024-02-21T19:35:08;3.05;;;3.35;;
37169;SDS011;23062;13.952;100.608;2024-02-21T19:39:51;3.03;;;3.76;;
37169;SDS011;23062;13.952;100.608;2024-02-21T19:44:36;3.40;;;3.79;;
37169;SDS011;23062;13.952;100.608;2024-02-21T19:49:20;2.13;;;2.53;;
37169;SDS011;23062;13.952;100.608;2024-02-21T19:54:01;2.86;;;3.36;;
37169;SDS011;23062;13.952;100.608;2024-02-21T19:58:45;2.36;;;2.95;;
37169;SDS011;23062;13.952;100.608;2024-02-21T20:03:29;2.62;;;2.95;;
37169;SDS011;23062;13.952;100.608;2024-02-21T20:08:12;2.55;;;2.93;;
37169;SDS011;23062;13.952;100.608;2024-02-21T20:13:00;2.83;;;3.35;;
37169;SDS011;23062;13.952;100.608;2024-02-21T20:17:43;2.95;;;3.74;;
37169;SDS011;23062;13.952;100.608;2024-02-21T20:22:28;2.28;;;2.93;;
37169;SDS011;23062;13.952;100.608;2024-02-21T20:27:12;2.66;;;2.96;;
37169;SDS011;23062;13.952;100.608;2024-02-21T20:31:56;2.54;;;2.93;;
37169;SDS011;23062;13.952;100.608;2024-02-21T20:42:07;3.06;;;3.35;;
37169;SDS011;23062;13.952;100.608;2024-02-21T20:46:43;3.37;;;3.78;;
37169;SDS011;23062;13.952;100.608;2024-02-21T20:51:31;3.32;;;3.77;;
37169;SDS011;23062;13.952;100.608;2024-02-21T20:56:11;2.52;;;2.92;;
37169;SDS011;23062;13.952;100.608;2024-02-21T21:00:48;2.21;;;3.26;;
37169;SDS011;23062;13.952;100.608;2024-02-21T21:05:30;3.17;;;4.10;;
37169;SDS011;23062;13.952;100.608;2024-02-21T21:10:10;2.16;;;2.84;;
37169;SDS011;23062;13.952;100.608;2024-02-21T21:14:54;2.77;;;3.65;;
37169;SDS011;23062;13.952;100.608;2024-02-21T21:19:32;2.81;;;3.66;;
37169;SDS011;23062;13.952;100.608;2024-02-21T21:24:14;2.81;;;3.66;;
37169;SDS011;23062;13.952;100.608;2024-02-21T21:28:52;2.33;;;3.19;;
37169;SDS011;23062;13.952;100.608;2024-02-21T21:33:37;2.50;;;3.99;;
37169;SDS011;23062;13.952;100.608;2024-02-21T21:38:16;2.36;;;3.60;;
37169;SDS011;23062;13.952;100.608;2024-02-21T21:43:00;2.20;;;3.56;;
37169;SDS011;23062;13.952;100.608;2024-02-21T21:47:45;1.83;;;3.13;;
37169;SDS011;23062;13.952;100.608;2024-02-21T21:52:27;2.26;;;3.89;;
37169;SDS011;23062;13.952;100.608;2024-02-21T21:57:13;2.00;;;3.48;;
37169;SDS011;23062;13.952;100.608;2024-02-21T22:01:49;2.07;;;3.88;;
37169;SDS011;23062;13.952;100.608;2024-02-21T22:06:33;1.79;;;3.47;;
37169;SDS011;23062;13.952;100.608;2024-02-21T22:11:16;1.75;;;3.58;;
37169;SDS011;23062;13.952;100.608;2024-02-21T22:15:53;1.94;;;3.85;;
37169;SDS011;23062;13.952;100.608;2024-02-21T22:20:35;1.45;;;4.08;;
37169;SDS011;23062;13.952;100.608;2024-02-21T22:25:19;1.56;;;3.53;;
37169;SDS011;23062;13.952;100.608;2024-02-21T22:29:55;1.76;;;3.43;;
37169;SDS011;23062;13.952;100.608;2024-02-21T22:34:40;1.97;;;3.82;;
37169;SDS011;23062;13.952;100.608;2024-02-21T22:39:25;2.03;;;4.22;;
37169;SDS011;23062;13.952;100.608;2024-02-21T22:44:10;1.78;;;3.43;;
37169;SDS011;23062;13.952;100.608;2024-02-21T22:48:54;2.14;;;3.83;;
37169;SDS011;23062;13.952;100.608;2024-02-21T22:53:34;2.12;;;3.86;;
37169;SDS011;23062;13.952;100.608;2024-02-21T22:58:12;2.60;;;4.32;;
37169;SDS011;23062;13.952;100.608;2024-02-21T23:02:49;2.34;;;3.55;;
37169;SDS011;23062;13.952;100.608;2024-02-21T23:07:36;2.18;;;3.56;;
37169;SDS011;23062;13.952;100.608;2024-02-21T23:12:20;2.04;;;3.17;;
37169;SDS011;23062;13.952;100.608;2024-02-21T23:17:06;1.92;;;2.79;;
37169;SDS011;23062;13.952;100.608;2024-02-21T23:21:50;2.02;;;3.17;;
37169;SDS011;23062;13.952;100.608;2024-02-21T23:26:52;2.98;;;4.01;;
37169;SDS011;23062;13.952;100.608;2024-02-21T23:31:31;2.43;;;3.57;;
37169;SDS011;23062;13.952;100.608;2024-02-21T23:36:20;2.10;;;3.19;;
37169;SDS011;23062;13.952;100.608;2024-02-21T23:41:03;2.81;;;4.01;;
37169;SDS011;23062;13.952;100.608;2024-02-21T23:45:40;2.97;;;4.41;;
37169;SDS011;23062;13.952;100.608;2024-02-21T23:50:19;2.42;;;3.62;;
37169;SDS011;23062;13.952;100.608;2024-02-21T23:55:04;2.33;;;3.59;;
37169;SDS011;23062;13.952;100.608;2024-02-21T23:59:49;1.99;;;2.81;;
